Time;durP1;ratioP1;P1;durP2;ratioP2;P2;SDS_P1;SDS_P2;PMS_P1;PMS_P2;Temp;Humidity;BMP_temperature;BMP_pressure;BME280_temperature;BME280_humidity;BME280_pressure;Samples;Min_cycle;Max_cycle;Signal;HPM_P1;HPM_P2
2023/09/24 00:00:10;;;;;;;15.77;3.30;;;18.70;99.70;;;;;;5021898;28;20044;-74
2023/09/24 00:03:16;;;;;;;22.13;3.50;;;18.90;99.90;;;;;;5033826;28;20045;-74
2023/09/24 00:06:21;;;;;;;21.13;3.83;;;16.70;99.40;;;;;;5034019;28;20045;-74
2023/09/24 00:09:24;;;;;;;15.88;2.78;;;19.00;99.90;;;;;;5033858;28;20401;-74
2023/09/24 00:12:28;;;;;;;18.30;3.25;;;19.20;99.20;;;;;;5033936;28;20125;-74
2023/09/24 00:15:33;;;;;;;11.00;3.35;;;19.20;99.20;;;;;;5033737;28;20044;-74
2023/09/24 00:18:37;;;;;;;17.75;3.17;;;19.30;99.50;;;;;;5033672;28;20048;-74
2023/09/24 00:21:41;;;;;;;15.38;2.90;;;;;;;;;;5033649;28;20045;-74
2023/09/24 00:24:46;;;;;;;18.30;3.38;;;;;;;;;;5033507;28;20504;-74
2023/09/24 00:27:50;;;;;;;11.52;3.53;;;18.30;99.50;;;;;;5020778;28;20057;-74
2023/09/24 00:30:58;;;;;;;14.35;3.33;;;18.80;99.90;;;;;;5020873;28;20041;-74
2023/09/24 00:34:03;;;;;;;20.85;4.15;;;;;;;;;;5033351;28;20129;-74
2023/09/24 00:37:07;;;;;;;17.65;4.55;;;;;;;;;;5033442;28;20049;-74
2023/09/24 00:40:11;;;;;;;17.85;4.80;;;;;;;;;;5033299;28;20044;-74
2023/09/24 00:43:28;;;;;;;17.95;4.93;;;18.90;99.90;;;;;;5033301;28;20503;-74
2023/09/24 00:46:33;;;;;;;18.20;5.07;;;18.80;99.90;;;;;;5020893;28;20064;-74
2023/09/24 00:49:37;;;;;;;26.02;5.57;;;;;;;;;;5009359;28;20408;-74
2023/09/24 00:52:43;;;;;;;22.25;4.90;;;18.70;99.90;;;;;;5032729;28;20045;-74
2023/09/24 00:55:47;;;;;;;19.00;4.70;;;;;;;;;;5032977;28;20049;-73
2023/09/24 00:58:52;;;;;;;12.85;3.83;;;17.20;99.90;;;;;;5033079;28;20060;-73
2023/09/24 01:01:57;;;;;;;16.92;4.40;;;;;;;;;;5032908;28;20508;-73
2023/09/24 01:05:01;;;;;;;17.10;4.10;;;;;;;;;;5020571;28;20036;-73
2023/09/24 01:08:05;;;;;;;18.08;4.80;;;18.80;99.90;;;;;;5032409;28;20052;-73
2023/09/24 01:11:10;;;;;;;23.40;4.82;;;;;;;;;;5032461;28;20068;-74
2023/09/24 01:14:14;;;;;;;14.48;4.45;;;;;;;;;;5032501;28;20052;-74
2023/09/24 01:17:20;;;;;;;17.50;4.70;;;18.80;99.90;;;;;;5020001;28;20472;-73
2023/09/24 01:20:27;;;;;;;15.52;4.32;;;17.30;99.90;;;;;;5020221;28;20512;-74
2023/09/24 01:23:37;;;;;;;13.35;4.32;;;19.00;99.90;;;;;;5032269;28;20036;-73
2023/09/24 01:26:41;;;;;;;17.05;4.25;;;;;;;;;;5032242;28;20044;-73
2023/09/24 01:29:45;;;;;;;14.40;4.22;;;;;;;;;;5032124;28;20515;-73
2023/09/24 01:32:50;;;;;;;18.13;4.60;;;;;;;;;;5019666;28;20045;-73
2023/09/24 01:35:55;;;;;;;22.23;5.07;;;;;;;;;;5008159;28;20048;-73
2023/09/24 01:38:59;;;;;;;13.38;4.00;;;;;;;;;;5032099;28;20084;-73
2023/09/24 01:42:04;;;;;;;17.85;4.05;;;;;;;;;;5032047;28;20511;-73
2023/09/24 01:45:10;;;;;;;22.40;5.00;;;;;;;;;;5019750;28;20048;-73
2023/09/24 01:48:17;;;;;;;13.50;4.15;;;;;;;;;;5019521;28;20048;-73
2023/09/24 01:51:22;;;;;;;13.68;3.80;;;;;;;;;;5031620;28;20508;-73
2023/09/24 01:54:26;;;;;;;16.40;4.20;;;;;;;;;;5031817;28;20048;-73
2023/09/24 01:57:30;;;;;;;17.95;3.95;;;;;;;;;;5031917;28;20044;-73
2023/09/24 02:00:34;;;;;;;14.57;3.22;;;;;;;;;;5019651;28;20369;-73
2023/09/24 02:03:39;;;;;;;13.80;3.45;;;;;;;;;;5030966;28;20401;-74
2023/09/24 02:06:43;;;;;;;17.17;3.55;;;;;;;;;;5019392;28;20048;-73
2023/09/24 02:09:48;;;;;;;11.32;2.70;;;;;;;;;;5031522;28;20405;-73
2023/09/24 02:12:52;;;;;;;15.60;3.10;;;;;;;;;;5031479;28;20519;-73
2023/09/24 02:15:56;;;;;;;14.43;3.30;;;;;;;;;;5031489;28;20044;-73
2023/09/24 02:19:00;;;;;;;10.00;3.13;;;;;;;;;;5019074;28;20531;-73
2023/09/24 02:22:04;;;;;;;20.92;2.85;;;;;;;;;;5019297;28;20052;-73
2023/09/24 02:25:10;;;;;;;15.60;3.50;;;;;;;;;;5031333;28;20117;-73
2023/09/24 02:28:17;;;;;;;19.25;3.67;;;;;;;;;;5031133;28;20050;-73
2023/09/24 02:31:22;;;;;;;10.38;2.95;;;;;;;;;;5019142;28;20052;-73
2023/09/24 02:34:28;;;;;;;18.45;3.83;;;;;;;;;;5031321;28;20048;-73
2023/09/24 02:37:32;;;;;;;13.63;3.13;;;;;;;;;;5018745;28;20041;-73
2023/09/24 02:40:38;;;;;;;16.92;3.95;;;16.90;99.90;;;;;;5018874;28;20044;-73
2023/09/24 02:43:43;;;;;;;21.73;3.13;;;;;;;;;;5030807;28;20488;-73
2023/09/24 02:46:47;;;;;;;16.10;3.17;;;;;;;;;;5030997;28;20053;-73
2023/09/24 02:49:51;;;;;;;17.27;2.97;;;;;;;;;;5030965;28;20057;-73
2023/09/24 02:52:57;;;;;;;14.48;3.55;;;18.10;99.90;;;;;;5030936;28;20044;-74
2023/09/24 02:56:03;;;;;;;24.55;3.30;;;;;;;;;;5018897;28;20048;-73
2023/09/24 02:59:11;;;;;;;15.75;2.65;;;;;;;;;;5031149;28;20053;-73
2023/09/24 03:02:16;;;;;;;22.42;3.58;;;;;;;;;;5018808;28;20045;-73
2023/09/24 03:05:24;;;;;;;12.80;3.45;;;;;;;;;;5030883;28;20044;-73
2023/09/24 03:08:30;;;;;;;14.45;3.20;;;;;;;;;;5018578;28;20048;-73
2023/09/24 03:11:34;;;;;;;16.65;3.20;;;;;;;;;;5018869;28;20045;-73
2023/09/24 03:14:38;;;;;;;13.10;3.40;;;18.20;99.90;;;;;;5018776;28;20052;-73
2023/09/24 03:17:44;;;;;;;12.68;3.45;;;18.20;99.90;;;;;;5022625;28;20425;-73
2023/09/24 03:20:50;;;;;;;16.60;3.70;;;;;;;;;;5022545;28;20397;-73
2023/09/24 03:23:54;;;;;;;19.08;2.72;;;;;;;;;;5034749;28;20037;-73
2023/09/24 03:26:58;;;;;;;12.93;3.28;;;17.90;99.90;;;;;;5022333;28;20389;-73
2023/09/24 03:30:03;;;;;;;16.85;3.42;;;;;;;;;;5022433;28;20049;-73
2023/09/24 03:33:07;;;;;;;14.25;3.88;;;;;;;;;;5022203;28;20049;-73
2023/09/24 03:36:11;;;;;;;15.95;3.15;;;;;;;;;;5034394;28;20068;-73
2023/09/24 03:39:15;;;;;;;15.60;3.35;;;;;;;;;;5022122;28;20052;-73
2023/09/24 03:42:20;;;;;;;12.85;3.30;;;;;;;;;;5022170;28;20052;-73
2023/09/24 03:45:24;;;;;;;15.27;2.83;;;;;;;;;;5022024;28;20040;-73
2023/09/24 03:48:29;;;;;;;18.35;3.20;;;;;;;;;;5021671;28;20064;-73
2023/09/24 03:51:33;;;;;;;10.48;2.95;;;;;;;;;;5022115;28;20056;-73
2023/09/24 03:54:38;;;;;;;14.57;3.25;;;;;;;;;;5034147;28;20049;-73
2023/09/24 03:57:42;;;;;;;14.50;3.15;;;;;;;;;;5033923;28;20056;-73
2023/09/24 04:00:46;;;;;;;18.50;3.55;;;;;;;;;;5021566;28;20049;-73
2023/09/24 04:03:51;;;;;;;16.88;3.00;;;;;;;;;;5021659;28;20511;-73
2023/09/24 04:06:55;;;;;;;16.55;3.42;;;;;;;;;;5033829;28;20389;-73
2023/09/24 04:09:59;;;;;;;14.18;3.03;;;;;;;;;;5033923;28;20053;-73
2023/09/24 04:13:03;;;;;;;13.18;2.95;;;;;;;;;;5033847;28;20045;-73
2023/09/24 04:16:12;;;;;;;15.32;3.13;;;18.00;99.90;;;;;;5021538;28;20069;-73
2023/09/24 04:19:17;;;;;;;15.82;3.58;;;;;;;;;;5021069;28;20417;-73
2023/09/24 04:22:22;;;;;;;10.68;3.33;;;;;;;;;;5033419;28;20044;-73
2023/09/24 04:25:26;;;;;;;13.70;3.10;;;;;;;;;;5033292;28;20400;-73
2023/09/24 04:28:30;;;;;;;10.00;2.90;;;;;;;;;;5032608;28;20057;-72
2023/09/24 04:31:35;;;;;;;18.55;2.95;;;;;;;;;;5033504;28;20511;-73
2023/09/24 04:34:39;;;;;;;17.17;3.03;;;;;;;;;;5033163;28;20044;-73
2023/09/24 04:37:43;;;;;;;15.45;3.05;;;;;;;;;;5033393;28;20052;-72
2023/09/24 04:40:48;;;;;;;24.38;3.85;;;;;;;;;;5033356;28;20397;-73
2023/09/24 04:43:52;;;;;;;15.23;2.40;;;;;;;;;;5033199;28;20036;-73
2023/09/24 04:46:59;;;;;;;13.45;2.63;;;;;;;;;;5033116;28;20053;-73
2023/09/24 04:50:04;;;;;;;12.07;2.60;;;;;;;;;;5032884;28;20060;-72
2023/09/24 04:53:08;;;;;;;11.82;3.22;;;;;;;;;;5032961;28;20048;-73
2023/09/24 04:56:12;;;;;;;14.05;2.63;;;;;;;;;;5033015;28;20413;-72
2023/09/24 04:59:16;;;;;;;11.23;2.97;;;;;;;;;;5032829;28;20124;-74
2023/09/24 05:02:21;;;;;;;14.27;2.53;;;;;;;;;;5032842;28;20040;-72
2023/09/24 05:05:25;;;;;;;17.75;2.90;;;;;;;;;;5032633;28;20040;-73
2023/09/24 05:08:29;;;;;;;16.35;2.67;;;;;;;;;;5032402;28;20052;-73
2023/09/24 05:11:34;;;;;;;21.55;2.67;;;;;;;;;;5032461;28;20044;-73
2023/09/24 05:14:38;;;;;;;12.68;2.50;;;;;;;;;;5032642;28;20597;-72
2023/09/24 05:17:42;;;;;;;17.77;3.10;;;;;;;;;;5032458;28;20397;-73
2023/09/24 05:20:47;;;;;;;12.77;2.90;;;;;;;;;;5032341;28;20200;-73
2023/09/24 05:23:52;;;;;;;11.98;3.08;;;;;;;;;;5032056;28;20588;-72
2023/09/24 05:26:56;;;;;;;16.33;2.58;;;;;;;;;;5032488;28;20405;-72
2023/09/24 05:30:00;;;;;;;11.32;2.80;;;;;;;;;;5020059;28;20109;-73
2023/09/24 05:33:06;;;;;;;13.98;2.30;;;;;;;;;;5032316;28;20048;-73
2023/09/24 05:36:11;;;;;;;17.40;3.30;;;20.40;97.80;;;;;;5032286;28;20048;-73
2023/09/24 05:39:15;;;;;;;12.10;3.15;;;;;;;;;;5031260;28;20504;-73
2023/09/24 05:42:20;;;;;;;13.75;3.83;;;21.70;94.40;;;;;;5032143;28;20048;-74
2023/09/24 05:45:24;;;;;;;15.35;3.30;;;22.00;94.70;;;;;;5019651;28;20048;-74
2023/09/24 05:48:29;;;;;;;13.77;3.40;;;22.40;94.10;;;;;;5031526;28;20052;-74
2023/09/24 05:51:33;;;;;;;12.63;3.28;;;23.00;93.30;;;;;;5012145;28;20045;-74
2023/09/24 05:54:37;;;;;;;11.73;2.90;;;23.60;92.20;;;;;;5011963;28;20040;-74
2023/09/24 05:57:41;;;;;;;12.57;3.33;;;23.90;91.30;;;;;;4999823;28;20512;-75
2023/09/24 06:00:45;;;;;;;17.38;3.20;;;23.90;91.60;;;;;;5012120;28;20052;-74
2023/09/24 06:03:49;;;;;;;18.08;3.47;;;24.50;91.20;;;;;;5011629;28;20052;-74
2023/09/24 06:06:53;;;;;;;12.52;3.13;;;24.20;90.70;;;;;;5011800;28;20064;-74
2023/09/24 06:09:58;;;;;;;11.48;3.20;;;23.70;90.90;;;;;;5011797;28;20064;-74
2023/09/24 06:13:03;;;;;;;16.52;2.88;;;23.10;92.40;;;;;;5012109;28;20194;-75
2023/09/24 06:16:07;;;;;;;20.42;2.85;;;22.60;92.70;;;;;;5011794;28;20041;-74
2023/09/24 06:19:30;;;;;;;11.35;2.92;;;22.00;93.60;;;;;;5011666;28;20044;-74
2023/09/24 06:22:35;;;;;;;18.67;3.53;;;21.30;94.60;;;;;;5011642;28;20045;-74
2023/09/24 06:25:39;;;;;;;15.60;3.28;;;20.80;95.60;;;;;;5011735;28;20052;-74
2023/09/24 06:28:43;;;;;;;17.20;2.90;;;20.60;96.30;;;;;;5011569;28;20126;-74
2023/09/24 06:31:48;;;;;;;15.77;2.53;;;20.40;96.80;;;;;;5011709;28;20045;-74
2023/09/24 06:34:52;;;;;;;13.10;2.80;;;20.30;96.80;;;;;;5011294;28;20064;-74
2023/09/24 06:37:55;;;;;;;18.55;2.88;;;20.30;97.30;;;;;;4988167;28;20064;-74
2023/09/24 06:41:03;;;;;;;13.60;2.47;;;20.20;97.00;;;;;;4988151;28;20041;-74
2023/09/24 06:44:10;;;;;;;13.45;2.30;;;20.30;97.00;;;;;;5011548;28;20053;-73
2023/09/24 06:47:14;;;;;;;18.25;2.72;;;20.40;96.90;;;;;;5011202;28;20040;-74
2023/09/24 06:50:18;;;;;;;15.40;2.53;;;20.80;96.70;;;;;;5022067;28;20516;-75
2023/09/24 06:53:23;;;;;;;19.10;3.22;;;21.50;96.10;;;;;;5035294;28;20048;-74
2023/09/24 06:56:27;;;;;;;13.35;4.15;;;22.00;94.50;;;;;;5035007;28;20396;-74
2023/09/24 06:59:30;;;;;;;17.92;2.80;;;22.10;94.30;;;;;;5035245;28;20040;-75
2023/09/24 07:02:35;;;;;;;28.70;2.70;;;22.10;94.10;;;;;;5022933;28;20052;-74
2023/09/24 07:05:39;;;;;;;16.15;2.95;;;22.00;94.30;;;;;;5034822;28;20037;-75
2023/09/24 07:08:44;;;;;;;12.25;2.30;;;22.00;94.30;;;;;;5034808;28;20064;-75
2023/09/24 07:11:47;;;;;;;18.13;3.13;;;22.50;94.20;;;;;;5035013;28;20385;-75
2023/09/24 07:14:51;;;;;;;19.90;2.83;;;23.00;93.20;;;;;;5034777;28;20048;-75
2023/09/24 07:17:55;;;;;;;13.75;2.53;;;23.20;92.70;;;;;;5011420;28;20068;-75
2023/09/24 07:20:59;;;;;;;12.80;3.15;;;23.30;92.60;;;;;;5034442;28;20048;-75
2023/09/24 07:24:04;;;;;;;14.07;2.60;;;23.10;93.00;;;;;;5034479;28;20072;-75
2023/09/24 07:27:10;;;;;;;17.70;3.33;;;23.10;93.00;;;;;;5034563;28;20037;-75
2023/09/24 07:30:17;;;;;;;16.58;2.72;;;23.10;93.90;;;;;;5023059;28;20094;-75
2023/09/24 07:33:23;;;;;;;17.77;3.00;;;23.50;92.90;;;;;;5034314;28;20053;-75
2023/09/24 07:36:30;;;;;;;15.75;2.75;;;23.50;92.70;;;;;;5034515;28;20040;-75
2023/09/24 07:39:35;;;;;;;13.23;2.75;;;23.80;93.10;;;;;;5034598;28;20036;-75
2023/09/24 07:42:39;;;;;;;16.45;2.38;;;24.20;92.50;;;;;;5034462;28;20044;-75
2023/09/24 07:45:43;;;;;;;21.65;3.50;;;24.20;91.70;;;;;;5034402;28;20041;-75
2023/09/24 07:48:48;;;;;;;10.95;2.65;;;24.30;91.50;;;;;;5034085;28;20052;-75
2023/09/24 07:51:52;;;;;;;11.52;2.50;;;24.90;91.10;;;;;;5034006;28;20052;-75
2023/09/24 07:54:57;;;;;;;18.33;2.70;;;25.00;86.70;;;;;;5033820;28;20490;-75
2023/09/24 07:58:01;;;;;;;16.33;3.33;;;25.00;87.10;;;;;;5033928;28;20049;-75
2023/09/24 08:01:07;;;;;;;18.40;3.08;;;24.90;87.20;;;;;;5033697;28;20048;-75
2023/09/24 08:04:11;;;;;;;14.52;2.38;;;24.80;87.30;;;;;;5033948;28;20049;-75
2023/09/24 08:07:15;;;;;;;12.10;2.92;;;24.80;87.60;;;;;;5033864;28;20361;-75
2023/09/24 08:10:19;;;;;;;14.07;2.90;;;24.90;87.20;;;;;;5021650;28;20057;-75
2023/09/24 08:13:23;;;;;;;9.93;2.33;;;25.10;87.10;;;;;;5033325;28;20040;-75
2023/09/24 08:16:28;;;;;;;13.55;2.97;;;25.30;85.30;;;;;;5033586;28;20040;-75
2023/09/24 08:19:32;;;;;;;14.70;2.92;;;25.40;85.70;;;;;;5033418;28;20060;-74
2023/09/24 08:22:35;;;;;;;13.38;2.95;;;25.30;85.50;;;;;;5033348;28;20492;-74
2023/09/24 08:25:40;;;;;;;10.80;2.63;;;24.90;84.60;;;;;;5033370;28;20048;-74
2023/09/24 08:28:44;;;;;;;13.35;3.58;;;25.30;82.40;;;;;;5033384;28;20056;-74
2023/09/24 08:31:48;;;;;;;8.75;2.58;;;25.50;83.30;;;;;;5020887;28;20045;-74
2023/09/24 08:34:52;;;;;;;15.38;2.75;;;25.80;82.00;;;;;;5033268;28;20396;-74
2023/09/24 08:37:56;;;;;;;5.68;1.83;;;25.70;81.50;;;;;;5021254;28;20044;-74
2023/09/24 08:41:00;;;;;;;8.75;1.63;;;25.70;80.70;;;;;;5021086;28;20064;-74
2023/09/24 08:44:05;;;;;;;5.13;1.73;;;25.60;79.40;;;;;;5033157;28;20052;-74
2023/09/24 08:47:10;;;;;;;4.03;1.40;;;25.40;79.00;;;;;;5033216;28;20496;-74
2023/09/24 08:50:15;;;;;;;6.55;1.40;;;25.30;78.30;;;;;;5032915;28;20397;-75
2023/09/24 08:53:21;;;;;;;4.22;1.45;;;25.00;77.50;;;;;;5032810;28;20400;-75
2023/09/24 08:59:47;;;;;;;5.95;1.30;;;24.90;76.90;;;;;;5023087;28;20044;-75
2023/09/24 09:02:51;;;;;;;5.60;1.30;;;24.90;76.90;;;;;;5032766;28;20592;-75
2023/09/24 09:05:56;;;;;;;5.65;1.35;;;24.80;78.10;;;;;;5032764;28;20056;-74
2023/09/24 09:09:00;;;;;;;3.80;1.30;;;25.10;77.20;;;;;;5032563;28;20064;-75
2023/09/24 09:12:04;;;;;;;7.05;1.60;;;25.20;78.40;;;;;;5032741;28;20535;-75
2023/09/24 09:15:20;;;;;;;8.73;1.33;;;25.50;77.20;;;;;;5032449;28;20678;-74
2023/09/24 09:18:26;;;;;;;4.82;1.35;;;25.60;76.10;;;;;;5020319;28;20052;-74
2023/09/24 09:21:30;;;;;;;5.60;1.55;;;25.50;75.40;;;;;;5020490;28;20068;-75
2023/09/24 09:24:34;;;;;;;4.88;1.40;;;25.30;74.80;;;;;;5032074;28;20052;-74
2023/09/24 09:27:42;;;;;;;4.25;1.10;;;25.30;75.40;;;;;;5032510;28;20053;-75
2023/09/24 09:31:09;;;;;;;4.90;1.30;;;25.40;72.20;;;;;;5032381;28;20056;-75
2023/09/24 09:34:13;;;;;;;4.55;1.17;;;25.80;71.90;;;;;;5032166;28;20635;-75
2023/09/24 09:37:17;;;;;;;4.18;1.10;;;25.80;72.30;;;;;;5032320;28;20048;-75
2023/09/24 09:40:22;;;;;;;6.70;1.42;;;26.10;72.50;;;;;;5032272;28;20496;-75
2023/09/24 09:43:29;;;;;;;4.32;1.38;;;26.20;70.60;;;;;;5032040;28;20053;-75
2023/09/24 09:46:35;;;;;;;3.88;1.60;;;26.40;71.40;;;;;;5032099;28;20040;-75
2023/09/24 09:49:46;;;;;;;4.55;1.20;;;26.50;71.90;;;;;;5031510;28;20064;-75
2023/09/24 09:52:53;;;;;;;4.63;1.45;;;26.60;70.70;;;;;;5032036;28;20057;-75
2023/09/24 09:56:00;;;;;;;1.60;0.85;;;26.60;68.80;;;;;;5031997;28;20515;-75
2023/09/24 09:59:04;;;;;;;2.70;1.30;;;26.90;68.80;;;;;;5019247;28;20044;-75
2023/09/24 10:02:09;;;;;;;2.47;1.42;;;26.90;69.40;;;;;;5019606;28;20056;-74
2023/09/24 10:05:15;;;;;;;3.40;1.52;;;27.20;70.30;;;;;;5031350;28;20041;-74
2023/09/24 10:08:39;;;;;;;2.88;1.20;;;27.30;70.90;;;;;;5031508;28;20052;-74
2023/09/24 10:11:43;;;;;;;2.65;1.33;;;27.50;71.20;;;;;;5031823;28;20044;-75
2023/09/24 10:14:54;;;;;;;2.38;0.90;;;27.00;69.80;;;;;;5031530;28;20048;-75
2023/09/24 10:18:10;;;;;;;5.53;1.80;;;27.70;70.00;;;;;;5031216;28;20508;-75
2023/09/24 10:21:44;;;;;;;2.60;1.42;;;27.80;70.00;;;;;;5031376;28;20044;-74
2023/09/24 10:24:49;;;;;;;3.17;1.20;;;27.90;70.90;;;;;;5030588;28;20049;-74
2023/09/24 10:28:06;;;;;;;5.13;1.40;;;27.90;69.80;;;;;;5031340;28;20049;-75
2023/09/24 10:31:12;;;;;;;4.55;1.50;;;27.90;71.30;;;;;;5031403;28;20052;-75
2023/09/24 10:34:16;;;;;;;3.85;1.20;;;27.90;69.80;;;;;;5018911;28;20044;-76
2023/09/24 10:37:30;;;;;;;3.58;1.30;;;27.90;68.80;;;;;;5031400;28;20040;-75
2023/09/24 10:40:34;;;;;;;2.83;1.52;;;27.70;69.30;;;;;;5031079;28;20056;-74
2023/09/24 10:43:38;;;;;;;3.95;1.65;;;27.60;71.00;;;;;;5031027;28;20052;-74
2023/09/24 10:46:42;;;;;;;3.03;1.20;;;27.60;69.70;;;;;;5031096;28;20040;-75
2023/09/24 10:49:46;;;;;;;5.63;1.70;;;27.50;69.70;;;;;;5030601;28;20064;-75
2023/09/24 10:52:55;;;;;;;3.90;1.27;;;27.40;68.80;;;;;;5030950;28;20047;-75
2023/09/24 10:55:59;;;;;;;5.05;1.30;;;27.50;69.30;;;;;;5031225;28;20052;-74
2023/09/24 10:59:03;;;;;;;3.65;1.40;;;27.50;69.50;;;;;;5030864;28;20044;-74
2023/09/24 11:02:17;;;;;;;4.30;1.38;;;27.50;69.50;;;;;;5031156;28;20048;-75
2023/09/24 11:05:21;;;;;;;4.70;1.30;;;27.30;68.80;;;;;;5018914;28;20048;-74
2023/09/24 11:08:29;;;;;;;4.45;1.40;;;27.50;70.20;;;;;;5018736;28;20504;-75
2023/09/24 11:11:33;;;;;;;7.70;1.33;;;26.20;68.60;;;;;;5030684;28;20052;-74
2023/09/24 11:14:37;;;;;;;4.38;1.23;;;27.40;70.10;;;;;;5018668;28;20044;-75
2023/09/24 11:17:44;;;;;;;3.17;1.40;;;27.30;70.10;;;;;;5030942;28;20052;-74
2023/09/24 11:20:52;;;;;;;3.53;1.60;;;27.30;70.90;;;;;;5030415;28;20048;-74
2023/09/24 11:23:56;;;;;;;3.40;1.13;;;27.30;69.10;;;;;;5030645;28;20044;-74
2023/09/24 11:27:01;;;;;;;4.50;1.55;;;27.20;68.50;;;;;;5030920;28;20052;-75
2023/09/24 11:30:06;;;;;;;4.65;1.55;;;27.10;68.70;;;;;;5030501;28;20052;-74
2023/09/24 11:33:16;;;;;;;3.05;1.10;;;27.60;69.80;;;;;;5030721;28;20389;-74
2023/09/24 11:36:21;;;;;;;4.07;1.30;;;27.20;70.30;;;;;;5031627;28;20504;-75
2023/09/24 11:39:25;;;;;;;4.07;1.30;;;27.10;70.90;;;;;;5033967;28;20060;-75
2023/09/24 11:42:29;;;;;;;3.83;1.20;;;27.60;67.90;;;;;;5021993;28;20099;-75
2023/09/24 11:45:48;;;;;;;2.28;1.23;;;27.00;67.80;;;;;;5034324;28;20044;-75
2023/09/24 11:48:52;;;;;;;2.70;1.50;;;27.00;69.00;;;;;;5033922;28;20400;-75
2023/09/24 11:51:56;;;;;;;2.67;1.27;;;27.20;71.00;;;;;;5034698;28;20394;-74
2023/09/24 11:55:00;;;;;;;2.45;1.00;;;27.20;71.30;;;;;;5034297;28;20048;-74
2023/09/24 11:58:07;;;;;;;3.88;1.25;;;27.30;69.10;;;;;;5033936;28;20040;-74
2023/09/24 12:01:13;;;;;;;4.93;1.30;;;26.80;69.10;;;;;;5034200;28;20060;-75
2023/09/24 12:04:17;;;;;;;2.78;1.10;;;27.30;69.80;;;;;;5034033;28;20045;-74
2023/09/24 12:07:21;;;;;;;4.38;1.40;;;27.30;69.20;;;;;;5033914;28;20044;-74
2023/09/24 12:10:25;;;;;;;5.85;1.42;;;;;;;;;;5034008;28;20409;-75
2023/09/24 12:13:30;;;;;;;1.95;1.15;;;27.30;67.50;;;;;;5021722;28;20161;-75
2023/09/24 12:16:35;;;;;;;4.43;1.23;;;27.20;67.40;;;;;;5033801;28;20049;-75
2023/09/24 12:19:38;;;;;;;2.53;1.13;;;27.70;65.20;;;;;;5010363;28;20044;-75
2023/09/24 12:22:43;;;;;;;6.57;1.52;;;26.90;65.80;;;;;;5033308;28;20040;-75
2023/09/24 12:25:47;;;;;;;3.05;1.20;;;26.90;66.90;;;;;;5033784;28;20396;-75
2023/09/24 12:28:51;;;;;;;3.08;1.33;;;26.90;66.00;;;;;;5021597;28;20052;-74
2023/09/24 12:31:55;;;;;;;2.70;1.20;;;26.90;66.60;;;;;;5033450;28;20052;-74
2023/09/24 12:35:05;;;;;;;4.40;1.50;;;26.90;68.60;;;;;;5033158;28;20048;-74
2023/09/24 12:38:09;;;;;;;2.70;1.20;;;;;;;;;;5033529;28;20040;-75
2023/09/24 12:41:15;;;;;;;3.60;1.20;;;26.70;67.80;;;;;;5033566;28;20030;-75
2023/09/24 12:44:19;;;;;;;2.78;1.08;;;26.80;68.50;;;;;;5033210;28;20048;-74
2023/09/24 12:47:23;;;;;;;5.53;1.27;;;26.60;69.20;;;;;;5033197;28;20515;-73
2023/09/24 12:50:27;;;;;;;7.28;1.67;;;26.40;68.60;;;;;;5032508;28;20056;-75
2023/09/24 12:53:32;;;;;;;7.50;1.70;;;26.10;69.20;;;;;;5019934;28;20719;-74
2023/09/24 12:56:36;;;;;;;4.05;1.00;;;25.70;70.40;;;;;;5032733;28;20608;-74
2023/09/24 12:59:41;;;;;;;14.23;1.85;;;25.40;71.10;;;;;;5032966;28;20044;-74
2023/09/24 13:02:46;;;;;;;7.68;1.70;;;25.30;77.60;;;;;;5020343;28;20060;-74
2023/09/24 13:05:50;;;;;;;11.32;3.15;;;25.20;85.40;;;;;;5032898;28;20492;-74
2023/09/24 13:08:55;;;;;;;12.27;1.85;;;24.90;87.70;;;;;;5032409;28;20393;-74
2023/09/24 13:11:59;;;;;;;5.32;1.27;;;24.70;88.60;;;;;;5020281;28;20048;-74
2023/09/24 13:15:03;;;;;;;8.82;3.80;;;24.60;87.50;;;;;;5032708;28;20052;-72
2023/09/24 13:18:08;;;;;;;12.43;3.55;;;24.50;88.30;;;;;;5020080;28;20049;-74
2023/09/24 13:21:12;;;;;;;21.75;9.10;;;24.30;88.60;;;;;;5032325;28;20044;-74
2023/09/24 13:24:16;;;;;;;12.35;2.53;;;24.20;87.60;;;;;;5031005;28;20040;-74
2023/09/24 13:27:20;;;;;;;12.98;5.38;;;23.90;87.60;;;;;;5031060;28;20045;-74
2023/09/24 13:30:28;;;;;;;13.25;9.02;;;23.80;90.10;;;;;;5031575;28;20056;-76
2023/09/24 13:33:32;;;;;;;20.00;11.88;;;23.80;90.80;;;;;;5007838;28;20040;-75
2023/09/24 13:36:36;;;;;;;7.65;2.72;;;23.80;90.80;;;;;;4997438;28;20052;-76
2023/09/24 13:39:40;;;;;;;13.43;7.13;;;23.70;90.20;;;;;;5032003;28;20068;-75
2023/09/24 13:42:44;;;;;;;7.68;5.03;;;23.60;91.00;;;;;;5031984;28;20048;-75
2023/09/24 13:45:49;;;;;;;7.72;2.17;;;23.70;91.60;;;;;;5019939;28;20046;-76
2023/09/24 13:48:53;;;;;;;5.28;1.60;;;23.70;91.00;;;;;;5031621;28;20049;-76
2023/09/24 13:51:57;;;;;;;11.13;1.80;;;23.80;90.90;;;;;;5031753;28;20401;-75
2023/09/24 13:55:02;;;;;;;9.55;2.10;;;23.70;90.80;;;;;;5031918;28;20495;-75
2023/09/24 13:58:06;;;;;;;6.32;2.20;;;23.60;91.00;;;;;;5031670;28;20117;-75
2023/09/24 14:01:10;;;;;;;3.92;1.73;;;23.50;90.60;;;;;;5030894;28;20056;-76
2023/09/24 14:04:14;;;;;;;9.63;2.17;;;23.40;90.80;;;;;;5031624;28;20054;-76
2023/09/24 14:07:20;;;;;;;8.07;2.00;;;23.30;91.20;;;;;;5019401;28;20044;-77
2023/09/24 14:13:47;;;;;;;6.65;1.75;;;23.10;91.00;;;;;;5031380;28;20049;-76
2023/09/24 14:16:51;;;;;;;7.93;2.67;;;23.10;90.90;;;;;;5031265;28;20052;-75
2023/09/24 14:19:55;;;;;;;8.15;2.10;;;23.10;90.90;;;;;;5019074;28;20048;-74
2023/09/24 14:23:00;;;;;;;5.15;2.20;;;23.10;91.40;;;;;;5031211;28;20048;-75
2023/09/24 14:26:05;;;;;;;5.43;2.13;;;23.10;91.20;;;;;;5031434;28;20064;-75
2023/09/24 14:29:09;;;;;;;6.93;2.50;;;23.10;90.10;;;;;;5030919;28;20056;-75
2023/09/24 14:32:13;;;;;;;10.10;2.13;;;23.00;89.90;;;;;;5007021;28;20044;-75
2023/09/24 14:35:17;;;;;;;7.95;2.20;;;21.30;88.80;;;;;;5031143;28;20032;-77
2023/09/24 14:38:22;;;;;;;5.68;2.28;;;22.90;89.60;;;;;;5006999;28;20044;-74
2023/09/24 14:41:26;;;;;;;6.80;1.98;;;23.00;90.30;;;;;;5030078;28;20040;-73
2023/09/24 14:44:35;;;;;;;5.63;2.25;;;23.00;89.60;;;;;;5030566;28;20095;-73
2023/09/24 14:47:42;;;;;;;6.70;2.30;;;23.10;89.10;;;;;;5018943;28;20048;-73
2023/09/24 14:50:45;;;;;;;4.05;1.95;;;23.10;87.70;;;;;;5030683;28;20056;-73
2023/09/24 14:53:50;;;;;;;4.78;1.70;;;23.10;88.90;;;;;;5031160;28;20228;-73
2023/09/24 14:56:54;;;;;;;8.05;2.25;;;23.10;88.50;;;;;;5031038;28;20044;-73
2023/09/24 14:59:59;;;;;;;4.78;1.80;;;23.10;89.30;;;;;;5030877;28;20338;-73
2023/09/24 15:03:04;;;;;;;6.22;1.80;;;23.00;89.70;;;;;;5030836;28;20048;-73
2023/09/24 15:06:09;;;;;;;4.15;1.70;;;23.00;90.20;;;;;;5018613;28;20393;-72
2023/09/24 15:09:13;;;;;;;5.85;2.75;;;22.70;91.30;;;;;;5030753;28;20052;-73
2023/09/24 15:12:17;;;;;;;5.72;1.90;;;22.60;92.50;;;;;;5033411;28;20044;-73
2023/09/24 15:15:21;;;;;;;6.60;1.27;;;22.60;93.20;;;;;;5034854;28;20049;-73
2023/09/24 15:18:25;;;;;;;6.93;1.73;;;22.50;93.20;;;;;;5034728;28;20047;-73
2023/09/24 15:21:29;;;;;;;6.15;1.80;;;22.50;93.60;;;;;;5034835;28;20040;-73
2023/09/24 15:24:33;;;;;;;6.85;1.60;;;22.40;93.90;;;;;;5034737;28;20049;-73
2023/09/24 15:27:37;;;;;;;6.78;1.92;;;22.10;93.70;;;;;;5034460;28;20036;-74
2023/09/24 15:30:42;;;;;;;9.23;2.03;;;22.00;93.30;;;;;;5010880;28;20060;-74
2023/09/24 15:33:46;;;;;;;8.25;1.85;;;21.80;92.90;;;;;;5034591;28;20045;-73
2023/09/24 15:36:51;;;;;;;5.88;2.17;;;21.60;93.90;;;;;;5034625;28;20387;-73
2023/09/24 15:39:55;;;;;;;6.53;2.17;;;21.50;94.30;;;;;;5034636;28;20044;-72
2023/09/24 15:42:58;;;;;;;11.02;1.83;;;21.50;94.80;;;;;;5034448;28;20396;-73
2023/09/24 15:46:02;;;;;;;2.42;1.38;;;21.50;95.50;;;;;;5034499;28;20045;-73
2023/09/24 15:49:06;;;;;;;4.75;1.65;;;21.40;94.90;;;;;;5021878;28;20400;-73
2023/09/24 15:52:10;;;;;;;2.53;1.10;;;21.20;95.70;;;;;;5034238;28;20064;-74
2023/09/24 15:55:14;;;;;;;3.53;1.20;;;21.00;95.60;;;;;;5034127;28;20048;-73
2023/09/24 15:58:18;;;;;;;5.65;1.48;;;21.00;95.60;;;;;;5021988;28;20049;-73
2023/09/24 16:01:23;;;;;;;5.28;1.63;;;20.90;95.30;;;;;;5034152;28;20040;-73
2023/09/24 16:04:26;;;;;;;9.38;1.35;;;20.80;96.00;;;;;;5033737;28;20045;-73
2023/09/24 16:07:30;;;;;;;6.05;2.30;;;20.80;96.30;;;;;;5033988;28;20053;-73
2023/09/24 16:10:35;;;;;;;2.08;0.93;;;20.90;96.50;;;;;;5033541;28;20048;-74
2023/09/24 16:13:39;;;;;;;3.00;1.02;;;20.90;95.60;;;;;;5021208;28;20056;-73
2023/09/24 16:16:43;;;;;;;2.83;1.13;;;20.80;95.70;;;;;;5033458;28;20053;-73
2023/09/24 16:19:48;;;;;;;3.38;1.13;;;20.90;96.60;;;;;;5033359;28;20040;-73
2023/09/24 16:22:51;;;;;;;3.22;1.15;;;21.00;96.30;;;;;;5032017;28;20048;-73
2023/09/24 16:25:55;;;;;;;1.65;0.73;;;21.20;95.60;;;;;;5033099;28;20057;-73
2023/09/24 16:29:00;;;;;;;2.03;0.80;;;21.20;95.80;;;;;;5032738;28;20045;-73
2023/09/24 16:32:06;;;;;;;2.10;0.80;;;21.10;95.30;;;;;;5021406;28;20053;-73
2023/09/24 16:35:11;;;;;;;3.90;0.93;;;21.10;95.70;;;;;;5033202;28;20044;-73
2023/09/24 16:38:15;;;;;;;4.63;1.00;;;21.20;95.70;;;;;;5033055;28;20052;-73